Terminal Aerodrome Forecast
Issued by NWS Goodland, KS

Home | Current Version | Previous Version | Text Only | Print | Product List | Glossary On
Versions: 1 2 3 4 5 6 7 8 9 10 11 12 13 14 15 16 17 18 19 20 21 22 23 24 25 26
838
FTUS43 KGLD 301726
TAFGLD
TAF
KGLD 301726Z 3018/0118 36029G40KT 1/4SM +SN FG VV006
     FM301900 35035G50KT 1/4SM +SN FG OVC006
     FM302000 34030G39KT 3SM -SN OVC003
      TEMPO 3021/3023 P6SM OVC025
     FM302300 34028G37KT P6SM VCSH BKN090
     FM010000 34028G37KT P6SM BKN130
     FM010200 33016G24KT P6SM SCT200 WS020/34040KT
     FM010300 33011KT P6SM SCT250
     FM010500 30010KT P6SM FEW250=

USA.gov is the U.S. government's official web portal to all federal, state and local government web resources and services.